Time;durP1;ratioP1;P1;durP2;ratioP2;P2;SDS_P1;SDS_P2;PMS_P1;PMS_P2;Temp;Humidity;BMP_temperature;BMP_pressure;BME280_temperature;BME280_humidity;BME280_pressure;Samples;Min_cycle;Max_cycle;Signal;HPM_P1;HPM_P2
2024/04/17 00:01:36;;;;;;;;;;;;;;;5.83;100.00;95591.09;5465950;26;19961;-76
2024/04/17 00:04:02;;;;;;;;;;;;;;;5.86;100.00;95593.28;5467920;26;20017;-77
2024/04/17 00:06:27;;;;;;;;;;;;;;;5.87;100.00;95594.88;5469705;26;20019;-75
2024/04/17 00:08:53;;;;;;;;;;;;;;;5.86;100.00;95585.47;5469585;26;19958;-75
2024/04/17 00:11:20;;;;;;;;;;;;;;;5.82;100.00;95586.91;5469558;26;20094;-75
2024/04/17 00:13:46;;;;;;;;;;;;;;;5.81;100.00;95603.50;5469622;26;20073;-75
2024/04/17 00:16:12;;;;;;;;;;;;;;;5.81;100.00;95589.69;5469519;26;20008;-76
2024/04/17 00:18:37;;;;;;;;;;;;;;;5.83;100.00;95587.69;5469423;26;19981;-67
2024/04/17 00:21:04;;;;;;;;;;;;;;;5.85;100.00;95585.69;5469436;26;19947;-67
2024/04/17 00:23:29;;;;;;;;;;;;;;;5.84;100.00;95578.91;5469420;26;20081;-67
2024/04/17 00:25:55;;;;;;;;;;;;;;;5.83;100.00;95583.28;5469388;26;19964;-67
2024/04/17 00:28:22;;;;;;;;;;;;;;;5.81;100.00;95582.69;5469435;26;19980;-67
2024/04/17 00:30:48;;;;;;;;;;;;;;;5.78;100.00;95582.34;5469207;26;19958;-68
2024/04/17 00:33:14;;;;;;;;;;;;;;;5.70;100.00;95584.16;5469314;26;20240;-68
2024/04/17 00:35:40;;;;;;;;;;;;;;;5.68;100.00;95577.56;5469302;26;19988;-76
2024/04/17 00:38:06;;;;;;;;;;;;;;;5.67;100.00;95581.97;5469688;26;19965;-67
2024/04/17 00:40:32;;;;;;;;;;;;;;;5.67;100.00;95579.38;5469180;26;20165;-67
2024/04/17 00:42:59;;;;;;;;;;;;;;;5.66;100.00;95576.97;5469061;26;19949;-67
2024/04/17 00:45:38;;;;;;;;;;;;;;;5.63;100.00;95580.81;5469075;26;19956;-67
2024/04/17 00:48:07;;;;;;;;;;;;;;;5.62;100.00;95581.00;5469011;26;19968;-67
2024/04/17 00:50:33;;;;;;;;;;;;;;;5.62;100.00;95570.59;5469075;26;19965;-68
2024/04/17 00:52:59;;;;;;;;;;;;;;;5.65;100.00;95572.78;5468978;26;19956;-80
2024/04/17 00:55:25;;;;;;;;;;;;;;;5.65;100.00;95570.97;5468993;26;19953;-74
2024/04/17 00:57:52;;;;;;;;;;;;;;;5.66;100.00;95572.56;5468775;26;19952;-76
2024/04/17 01:00:18;;;;;;;;;;;;;;;5.66;100.00;95563.97;5468833;26;19974;-74
2024/04/17 01:02:43;;;;;;;;;;;;;;;5.68;100.00;95565.34;5468083;26;19950;-74
2024/04/17 01:05:09;;;;;;;;;;;;;;;5.68;100.00;95569.75;5468900;26;19991;-75
2024/04/17 01:07:35;;;;;;;;;;;;;;;5.62;100.00;95566.19;5468835;26;19973;-75
2024/04/17 01:10:01;;;;;;;;;;;;;;;5.58;100.00;95575.41;5468837;26;19997;-75
2024/04/17 01:12:27;;;;;;;;;;;;;;;5.58;100.00;95572.81;5468795;26;19946;-74
2024/04/17 01:14:53;;;;;;;;;;;;;;;5.57;100.00;95567.84;5467914;26;19948;-74
2024/04/17 01:17:20;;;;;;;;;;;;;;;5.55;100.00;95569.84;5468638;26;19959;-75
2024/04/17 01:19:46;;;;;;;;;;;;;;;5.54;100.00;95568.22;5468628;26;20079;-75
2024/04/17 01:22:12;;;;;;;;;;;;;;;5.56;100.00;95561.03;5468620;26;19971;-73
2024/04/17 01:24:38;;;;;;;;;;;;;;;5.60;100.00;95562.19;5468708;26;19977;-76
2024/04/17 01:27:04;;;;;;;;;;;;;;;5.59;100.00;95564.00;5468478;26;19987;-75
2024/04/17 01:29:31;;;;;;;;;;;;;;;5.57;100.00;95554.81;5468507;26;19997;-73
2024/04/17 01:31:57;;;;;;;;;;;;;;;5.57;100.00;95552.22;5468439;26;20150;-67
2024/04/17 01:34:25;;;;;;;;;;;;;;;5.53;100.00;95543.25;5468467;26;19989;-70
2024/04/17 01:36:52;;;;;;;;;;;;;;;5.52;100.00;95554.63;5468391;26;19963;-71
2024/04/17 01:39:18;;;;;;;;;;;;;;;5.47;100.00;95556.06;5468230;26;19984;-71
2024/04/17 01:41:43;;;;;;;;;;;;;;;5.44;100.00;95551.28;5468242;26;20048;-71
2024/04/17 01:44:09;;;;;;;;;;;;;;;5.44;100.00;95559.09;5468284;26;19955;-70
2024/04/17 01:46:35;;;;;;;;;;;;;;;5.42;100.00;95549.91;5468276;26;19954;-69
2024/04/17 01:49:01;;;;;;;;;;;;;;;5.40;100.00;95563.09;5468328;26;20032;-73
2024/04/17 01:51:27;;;;;;;;;;;;;;;5.40;100.00;95562.31;5468195;26;20160;-67
2024/04/17 01:53:52;;;;;;;;;;;;;;;5.38;100.00;95564.31;5468112;26;19947;-66
2024/04/17 01:56:18;;;;;;;;;;;;;;;5.38;100.00;95565.09;5468119;26;19948;-68
2024/04/17 01:58:44;;;;;;;;;;;;;;;5.43;100.00;95569.69;5467929;26;19957;-67
2024/04/17 02:01:10;;;;;;;;;;;;;;;5.44;100.00;95556.47;5468008;26;19961;-67
2024/04/17 02:03:36;;;;;;;;;;;;;;;5.48;100.00;95557.66;5468031;26;20084;-66
2024/04/17 02:06:02;;;;;;;;;;;;;;;5.51;100.00;95551.25;5467909;26;19946;-67
2024/04/17 02:08:27;;;;;;;;;;;;;;;5.55;100.00;95562.81;5468020;26;19956;-73
2024/04/17 02:10:53;;;;;;;;;;;;;;;5.59;100.00;95556.22;5467901;26;19944;-67
2024/04/17 02:13:19;;;;;;;;;;;;;;;5.62;100.00;95560.97;5467856;26;19990;-67
2024/04/17 02:15:45;;;;;;;;;;;;;;;5.65;100.00;95557.19;5467862;26;19999;-68
2024/04/17 02:18:11;;;;;;;;;;;;;;;5.67;100.00;95565.59;5467799;26;20154;-67
2024/04/17 02:20:38;;;;;;;;;;;;;;;5.69;100.00;95566.16;5467802;26;19971;-67
2024/04/17 02:23:04;;;;;;;;;;;;;;;5.72;100.00;95568.34;5467703;26;19962;-67
2024/04/17 02:25:29;;;;;;;;;;;;;;;5.75;100.00;95567.13;5467786;26;19949;-68
2024/04/17 02:27:55;;;;;;;;;;;;;;;5.78;100.00;95575.31;5465978;26;19958;-68
2024/04/17 02:30:21;;;;;;;;;;;;;;;5.80;100.00;95562.91;5467624;26;19949;-67
2024/04/17 02:32:47;;;;;;;;;;;;;;;5.82;100.00;95568.69;5467606;26;19969;-67
2024/04/17 02:35:13;;;;;;;;;;;;;;;5.81;100.00;95574.88;5467490;26;20033;-68
2024/04/17 02:37:39;;;;;;;;;;;;;;;5.83;100.00;95572.88;5467617;26;19992;-68
2024/04/17 02:40:05;;;;;;;;;;;;;;;5.81;100.00;95569.69;5467351;26;20005;-68
2024/04/17 02:42:31;;;;;;;;;;;;;;;5.82;100.00;95568.69;5467541;26;19969;-67
2024/04/17 02:44:56;;;;;;;;;;;;;;;5.83;100.00;95565.06;5467303;26;19948;-78
2024/04/17 02:47:22;;;;;;;;;;;;;;;5.84;100.00;95568.50;5467425;26;20153;-78
2024/04/17 02:49:48;;;;;;;;;;;;;;;5.78;100.00;95562.31;5467502;26;20144;-79
2024/04/17 02:52:14;;;;;;;;;;;;;;;5.76;100.00;95566.91;5467593;26;19959;-78
2024/04/17 02:54:40;;;;;;;;;;;;;;;5.75;100.00;95569.72;5467321;26;19973;-78
2024/04/17 02:57:05;;;;;;;;;;;;;;;5.73;100.00;95563.94;5467472;26;20105;-77
2024/04/17 02:59:32;;;;;;;;;;;;;;;5.71;100.00;95566.72;5467266;26;19977;-77
2024/04/17 03:01:58;;;;;;;;;;;;;;;5.71;100.00;95569.34;5464522;26;19959;-74
2024/04/17 03:04:24;;;;;;;;;;;;;;;5.68;100.00;95570.56;5467041;26;20067;-73
2024/04/17 03:06:49;;;;;;;;;;;;;;;5.66;100.00;95567.38;5467124;26;20200;-74
2024/04/17 03:09:15;;;;;;;;;;;;;;;5.63;100.00;95569.59;5467048;26;19960;-74
2024/04/17 03:11:41;;;;;;;;;;;;;;;5.62;100.00;95573.19;5466154;26;20146;-74
2024/04/17 03:14:07;;;;;;;;;;;;;;;5.59;100.00;95571.81;5466956;26;19983;-73
2024/04/17 03:16:33;;;;;;;;;;;;;;;5.56;100.00;95574.03;5466913;26;19956;-74
2024/04/17 03:18:59;;;;;;;;;;;;;;;5.54;100.00;95571.63;5466826;26;19999;-74
2024/04/17 03:21:24;;;;;;;;;;;;;;;5.53;100.00;95570.03;5466834;26;19979;-67
2024/04/17 03:23:50;;;;;;;;;;;;;;;5.55;100.00;95581.03;5466813;26;19984;-66
2024/04/17 03:26:16;;;;;;;;;;;;;;;5.56;100.00;95574.03;5466817;26;19968;-67
2024/04/17 03:28:42;;;;;;;;;;;;;;;5.57;100.00;95575.63;5465838;26;19959;-68
2024/04/17 03:31:08;;;;;;;;;;;;;;;5.57;100.00;95576.44;5466703;26;19976;-67
2024/04/17 03:33:33;;;;;;;;;;;;;;;5.56;100.00;95582.63;5466683;26;20062;-67
2024/04/17 03:35:59;;;;;;;;;;;;;;;5.57;100.00;95575.63;5466801;26;19956;-66
2024/04/17 03:38:25;;;;;;;;;;;;;;;5.58;100.00;95585.00;5469017;26;19961;-78
2024/04/17 03:40:52;;;;;;;;;;;;;;;5.57;100.00;95584.22;5474322;26;19976;-67
2024/04/17 03:43:18;;;;;;;;;;;;;;;5.53;100.00;95590.06;5474168;26;19950;-71
2024/04/17 03:45:43;;;;;;;;;;;;;;;5.48;100.00;95582.84;5474164;26;19959;-71
2024/04/17 03:48:09;;;;;;;;;;;;;;;5.47;100.00;95578.66;5474172;26;20074;-72
2024/04/17 03:50:35;;;;;;;;;;;;;;;5.51;100.00;95589.47;5474077;26;19976;-73
2024/04/17 03:53:01;;;;;;;;;;;;;;;5.52;100.00;95583.25;5474108;26;20021;-72
2024/04/17 03:55:27;;;;;;;;;;;;;;;5.49;100.00;95584.47;5473965;26;19948;-72
2024/04/17 03:57:52;;;;;;;;;;;;;;;5.44;100.00;95585.09;5474013;26;20003;-72
2024/04/17 04:00:18;;;;;;;;;;;;;;;5.43;100.00;95580.09;5473800;26;20163;-71
2024/04/17 04:02:44;;;;;;;;;;;;;;;5.42;100.00;95584.50;5473887;26;19973;-71
2024/04/17 04:05:10;;;;;;;;;;;;;;;5.43;100.00;95587.88;5473770;26;20181;-70
2024/04/17 04:07:37;;;;;;;;;;;;;;;5.42;100.00;95592.28;5473849;26;20029;-70
2024/04/17 04:10:04;;;;;;;;;;;;;;;5.40;100.00;95589.09;5473715;26;19951;-70
2024/04/17 04:12:30;;;;;;;;;;;;;;;5.36;100.00;95582.72;5473767;26;19952;-71
2024/04/17 04:14:56;;;;;;;;;;;;;;;5.32;100.00;95586.72;5472855;26;19948;-67
2024/04/17 04:17:21;;;;;;;;;;;;;;;5.29;100.00;95582.75;5473616;26;19946;-67
2024/04/17 04:19:47;;;;;;;;;;;;;;;5.31;100.00;95584.31;5472488;26;19952;-74
2024/04/17 04:22:13;;;;;;;;;;;;;;;5.32;100.00;95586.72;5473615;26;19951;-74
2024/04/17 04:24:42;;;;;;;;;;;;;;;5.31;100.00;95590.31;5473539;26;19999;-74
2024/04/17 04:27:11;;;;;;;;;;;;;;;5.34;100.00;95596.94;5473477;26;19990;-74
2024/04/17 04:29:37;;;;;;;;;;;;;;;5.35;100.00;95598.50;5473512;26;20188;-75
2024/04/17 04:32:03;;;;;;;;;;;;;;;5.32;100.00;95593.75;5473396;26;19959;-75
2024/04/17 04:34:29;;;;;;;;;;;;;;;5.33;100.00;95608.31;5473429;26;20166;-72
2024/04/17 04:36:55;;;;;;;;;;;;;;;5.35;100.00;95601.09;5473278;26;19978;-73
2024/04/17 04:39:21;;;;;;;;;;;;;;;5.36;100.00;95602.72;5473079;26;20027;-73
2024/04/17 04:41:47;;;;;;;;;;;;;;;5.37;100.00;95605.09;5473161;26;19968;-74
2024/04/17 04:44:13;;;;;;;;;;;;;;;5.35;100.00;95612.31;5473122;26;19988;-72
2024/04/17 04:46:38;;;;;;;;;;;;;;;5.35;100.00;95616.72;5473084;26;19956;-73
2024/04/17 04:49:04;;;;;;;;;;;;;;;5.37;100.00;95614.69;5472916;26;19967;-72
2024/04/17 04:51:30;;;;;;;;;;;;;;;5.38;100.00;95621.50;5468007;26;19977;-72
2024/04/17 04:53:56;;;;;;;;;;;;;;;5.42;100.00;95627.91;5469055;26;19953;-72
2024/04/17 04:56:22;;;;;;;;;;;;;;;5.43;100.00;95627.69;5469021;26;20034;-71
2024/04/17 04:58:47;;;;;;;;;;;;;;;5.44;100.00;95633.69;5468874;26;19965;-72
2024/04/17 05:01:13;;;;;;;;;;;;;;;5.42;100.00;95625.31;5468948;26;19978;-71
2024/04/17 05:03:39;;;;;;;;;;;;;;;5.41;100.00;95631.50;5468966;26;19976;-71
2024/04/17 05:06:05;;;;;;;;;;;;;;;5.27;100.00;95623.75;5468919;26;20177;-71
2024/04/17 05:08:31;;;;;;;;;;;;;;;5.18;100.00;95626.75;5468838;26;19976;-71
2024/04/17 05:10:57;;;;;;;;;;;;;;;5.12;100.00;95635.38;5468801;26;19970;-66
2024/04/17 05:13:23;;;;;;;;;;;;;;;5.05;100.00;95627.59;5468081;26;19958;-71
2024/04/17 05:15:49;;;;;;;;;;;;;;;4.94;100.00;95623.81;5468707;26;19988;-71
2024/04/17 05:18:15;;;;;;;;;;;;;;;4.76;100.00;95631.41;5468710;26;19980;-72
2024/04/17 05:20:41;;;;;;;;;;;;;;;4.65;100.00;95648.41;5468570;26;19947;-71
2024/04/17 05:23:06;;;;;;;;;;;;;;;4.49;100.00;95652.19;5468660;26;19951;-71
2024/04/17 05:25:32;;;;;;;;;;;;;;;4.42;100.00;95652.19;5468696;26;19957;-70
2024/04/17 05:27:58;;;;;;;;;;;;;;;4.35;100.00;95641.00;5468474;26;19973;-71
2024/04/17 05:30:24;;;;;;;;;;;;;;;4.31;100.00;95652.78;5468657;26;19970;-79
2024/04/17 05:32:50;;;;;;;;;;;;;;;4.31;100.00;95662.38;5467782;26;19978;-72
2024/04/17 05:35:15;;;;;;;;;;;;;;;4.37;100.00;95664.97;5468387;26;19951;-73
2024/04/17 05:37:41;;;;;;;;;;;;;;;4.46;100.00;95665.56;5468425;26;19957;-73
2024/04/17 05:40:07;;;;;;;;;;;;;;;4.52;100.00;95664.00;5468301;26;20066;-72
2024/04/17 05:42:33;;;;;;;;;;;;;;;4.52;100.00;95669.19;5468258;26;19962;-72
2024/04/17 05:44:59;;;;;;;;;;;;;;;4.47;100.00;95664.56;5468324;26;19981;-72
2024/04/17 05:47:25;;;;;;;;;;;;;;;4.43;100.00;95669.38;5468321;26;19964;-72
2024/04/17 05:49:51;;;;;;;;;;;;;;;4.41;100.00;95662.75;5468227;26;19951;-80
2024/04/17 05:52:17;;;;;;;;;;;;;;;4.43;100.00;95676.34;5468396;26;19952;-80
2024/04/17 05:54:43;;;;;;;;;;;;;;;4.45;100.00;95671.75;5468258;26;20023;-79
2024/04/17 05:57:09;;;;;;;;;;;;;;;4.48;100.00;95673.97;5468234;26;19970;-78
2024/04/17 05:59:35;;;;;;;;;;;;;;;4.53;100.00;95674.16;5468007;26;20022;-77
2024/04/17 06:02:01;;;;;;;;;;;;;;;4.59;100.00;95678.56;5467901;26;20095;-81
2024/04/17 06:04:29;;;;;;;;;;;;;;;4.65;100.00;95677.75;5468168;26;20067;-81
2024/04/17 06:06:55;;;;;;;;;;;;;;;4.71;100.00;95677.97;5468029;26;19986;-72
2024/04/17 06:09:21;;;;;;;;;;;;;;;4.71;100.00;95681.38;5467977;26;19945;-71
2024/04/17 06:11:47;;;;;;;;;;;;;;;4.67;100.00;95686.16;5467948;26;20014;-72
2024/04/17 06:14:13;;;;;;;;;;;;;;;4.69;100.00;95683.38;5467881;26;19947;-71
2024/04/17 06:16:38;;;;;;;;;;;;;;;4.71;100.00;95696.16;5467912;26;19988;-72
2024/04/17 06:19:04;;;;;;;;;;;;;;;4.73;100.00;95688.97;5466887;26;20054;-71
2024/04/17 06:21:31;;;;;;;;;;;;;;;4.68;100.00;95689.53;5467859;26;19958;-71
2024/04/17 06:23:57;;;;;;;;;;;;;;;4.67;100.00;95712.13;5467887;26;19954;-74
2024/04/17 06:26:22;;;;;;;;;;;;;;;4.60;100.00;95703.53;5467693;26;20102;-73
2024/04/17 06:28:48;;;;;;;;;;;;;;;4.54;100.00;95693.16;5467644;26;19953;-74
2024/04/17 06:31:15;;;;;;;;;;;;;;;4.44;100.00;95698.72;5467082;26;19984;-74
2024/04/17 06:33:41;;;;;;;;;;;;;;;4.38;100.00;95697.72;5467595;26;20077;-73
2024/04/17 06:36:07;;;;;;;;;;;;;;;4.32;100.00;95708.88;5467600;26;20016;-73
2024/04/17 06:38:33;;;;;;;;;;;;;;;4.32;100.00;95711.47;5467643;26;19953;-74
2024/04/17 06:41:00;;;;;;;;;;;;;;;4.34;100.00;95714.66;5467436;26;19979;-74
2024/04/17 06:43:26;;;;;;;;;;;;;;;4.36;100.00;95704.09;5467559;26;19972;-66
2024/04/17 06:45:52;;;;;;;;;;;;;;;4.39;100.00;95712.31;5467432;26;20179;-67
2024/04/17 06:48:18;;;;;;;;;;;;;;;4.45;100.00;95716.72;5467554;26;19958;-67
2024/04/17 06:50:44;;;;;;;;;;;;;;;4.53;100.00;95715.69;5467378;26;19958;-66
2024/04/17 06:53:11;;;;;;;;;;;;;;;4.60;100.00;95723.50;5467289;26;19976;-67
2024/04/17 06:55:37;;;;;;;;;;;;;;;4.64;100.00;95722.94;5467338;26;20183;-68
2024/04/17 06:58:03;;;;;;;;;;;;;;;4.71;100.00;95722.13;5467081;26;20076;-67
2024/04/17 07:00:33;;;;;;;;;;;;;;;4.75;100.00;95731.94;5467111;26;20016;-72
2024/04/17 07:02:59;;;;;;;;;;;;;;;4.78;100.00;95722.94;5467206;26;20158;-73
2024/04/17 07:05:25;;;;;;;;;;;;;;;4.76;100.00;95736.09;5467306;26;20178;-73
2024/04/17 07:07:51;;;;;;;;;;;;;;;4.72;100.00;95727.09;5467190;26;20154;-73
2024/04/17 07:10:17;;;;;;;;;;;;;;;4.71;100.00;95727.34;5467246;26;19952;-74
2024/04/17 07:12:43;;;;;;;;;;;;;;;4.70;100.00;95729.09;5465664;26;19952;-73
2024/04/17 07:15:09;;;;;;;;;;;;;;;4.67;100.00;95726.91;5467025;26;19989;-73
2024/04/17 07:17:35;;;;;;;;;;;;;;;4.67;100.00;95726.91;5467094;26;20100;-74
2024/04/17 07:20:01;;;;;;;;;;;;;;;4.64;100.00;95729.91;5466394;26;20032;-71
2024/04/17 07:22:26;;;;;;;;;;;;;;;4.61;100.00;95725.09;5467041;26;19963;-77
2024/04/17 07:24:52;;;;;;;;;;;;;;;4.60;100.00;95734.72;5466997;26;20000;-78
2024/04/17 07:27:18;;;;;;;;;;;;;;;4.53;100.00;95726.09;5466899;26;20015;-78
2024/04/17 07:29:45;;;;;;;;;;;;;;;4.51;100.00;95729.88;5467000;26;19982;-79
2024/04/17 07:32:10;;;;;;;;;;;;;;;4.51;100.00;95740.28;5466832;26;19947;-79
2024/04/17 07:34:36;;;;;;;;;;;;;;;4.42;100.00;95740.44;5466843;26;19947;-80
2024/04/17 07:37:04;;;;;;;;;;;;;;;4.41;100.00;95748.44;5466738;26;20141;-73
2024/04/17 07:39:30;;;;;;;;;;;;;;;4.45;100.00;95754.81;5466629;26;19953;-72
2024/04/17 07:41:56;;;;;;;;;;;;;;;4.45;100.00;95755.66;5466600;26;20153;-66
2024/04/17 07:44:22;;;;;;;;;;;;;;;4.46;100.00;95751.25;5466583;26;19988;-66
2024/04/17 07:46:48;;;;;;;;;;;;;;;4.34;100.00;95758.00;5465672;26;19973;-67
2024/04/17 07:49:15;;;;;;;;;;;;;;;4.32;100.00;95768.56;5465832;26;19959;-66
2024/04/17 07:51:41;;;;;;;;;;;;;;;4.34;100.00;95765.78;5393473;26;19980;-67
2024/04/17 07:54:06;;;;;;;;;;;;;;;4.32;100.00;95762.59;5393532;26;19959;-67
2024/04/17 07:56:32;;;;;;;;;;;;;;;4.26;100.00;95764.16;5394130;26;20158;-80
2024/04/17 07:58:58;;;;;;;;;;;;;;;4.08;100.00;95767.31;5365548;26;19967;-74
2024/04/17 08:01:24;;;;;;;;;;;;;;;4.00;100.00;95767.47;5393210;26;20018;-72
2024/04/17 08:03:50;;;;;;;;;;;;;;;4.02;100.00;95768.88;5393235;26;20205;-73
2024/04/17 08:06:20;;;;;;;;;;;;;;;4.07;100.00;95771.69;5393312;26;19975;-73
2024/04/17 08:08:49;;;;;;;;;;;;;;;4.11;100.00;95774.69;5393168;26;19989;-72
2024/04/17 08:11:17;;;;;;;;;;;;;;;4.06;100.00;95761.50;5393098;26;20076;-72
2024/04/17 08:13:43;;;;;;;;;;;;;;;4.02;100.00;95761.09;5393158;26;19948;-72
2024/04/17 08:16:09;;;;;;;;;;;;;;;4.02;100.00;95761.09;5363644;26;20251;-67
2024/04/17 08:18:34;;;;;;;;;;;;;;;4.14;100.00;95774.31;5393116;26;19968;-82
2024/04/17 08:21:00;;;;;;;;;;;;;;;4.33;100.00;95769.41;5392869;26;19952;-83
2024/04/17 08:23:26;;;;;;;;;;;;;;;4.54;100.00;95774.44;5452780;26;19951;-81
2024/04/17 08:25:52;;;;;;;;;;;;;;;4.73;100.00;95769.50;5466754;26;19967;-79
2024/04/17 08:28:18;;;;;;;;;;;;;;;4.96;100.00;95762.13;5469715;26;19962;-81
2024/04/17 08:30:44;;;;;;;;;;;;;;;5.26;100.00;95764.31;5469738;26;19958;-75
2024/04/17 08:33:10;;;;;;;;;;;;;;;5.53;100.00;95765.09;5469565;26;19967;-67
2024/04/17 08:35:38;;;;;;;;;;;;;;;5.75;100.00;95754.44;5470196;26;20121;-82
2024/04/17 08:38:04;;;;;;;;;;;;;;;5.90;100.00;95755.78;5471058;26;19973;-82
2024/04/17 08:40:30;;;;;;;;;;;;;;;5.97;100.00;95763.59;5471556;26;19946;-81
2024/04/17 08:43:02;;;;;;;;;;;;;;;6.00;100.00;95757.97;5470590;26;20174;-80
2024/04/17 08:45:31;;;;;;;;;;;;;;;6.00;100.00;95755.38;5440603;26;19966;-80
2024/04/17 08:47:58;;;;;;;;;;;;;;;5.97;100.00;95760.22;5471937;26;19946;-79
2024/04/17 08:50:29;;;;;;;;;;;;;;;5.95;100.00;95763.00;5471204;26;20088;-81
2024/04/17 08:52:57;;;;;;;;;;;;;;;5.90;100.00;95773.22;5469681;26;20077;-71
2024/04/17 08:55:23;;;;;;;;;;;;;;;5.85;100.00;95760.00;5468473;26;19996;-70
2024/04/17 08:57:49;;;;;;;;;;;;;;;5.76;100.00;95762.03;5469044;26;20108;-71
2024/04/17 09:00:15;;;;;;;;;;;;;;;5.89;100.00;95782.00;5468856;26;19974;-71
2024/04/17 09:02:43;;;;;;;;;;;;;;;6.02;100.00;95771.59;5468921;26;19945;-71
2024/04/17 09:05:10;;;;;;;;;;;;;;;6.02;100.00;95760.38;5468859;26;19974;-70
2024/04/17 09:07:38;;;;;;;;;;;;;;;5.84;100.00;95756.63;5468944;26;19960;-71
2024/04/17 09:10:04;;;;;;;;;;;;;;;5.75;100.00;95757.81;5469009;26;19947;-72
2024/04/17 09:12:31;;;;;;;;;;;;;;;5.77;100.00;95768.03;5468832;26;20077;-76
2024/04/17 09:14:57;;;;;;;;;;;;;;;5.73;100.00;95780.63;5468840;26;19949;-77
2024/04/17 09:17:23;;;;;;;;;;;;;;;5.67;100.00;95773.69;5468822;26;19948;-76
2024/04/17 09:19:49;;;;;;;;;;;;;;;5.64;100.00;95774.84;5468705;26;19952;-76
2024/04/17 09:22:15;;;;;;;;;;;;;;;5.62;100.00;95789.06;5468809;26;20702;-76
2024/04/17 09:24:41;;;;;;;;;;;;;;;5.61;100.00;95771.88;5468755;26;19958;-77
2024/04/17 09:27:13;;;;;;;;;;;;;;;5.51;100.00;95780.09;5468631;26;19967;-76
2024/04/17 09:29:38;;;;;;;;;;;;;;;5.43;100.00;95794.09;5468824;26;20176;-70
2024/04/17 09:32:04;;;;;;;;;;;;;;;5.34;100.00;95797.09;5468472;26;19953;-73
2024/04/17 09:34:30;;;;;;;;;;;;;;;5.32;100.00;95799.09;5468565;26;19952;-73
2024/04/17 09:36:57;;;;;;;;;;;;;;;5.31;100.00;95787.88;5466984;26;19969;-72
2024/04/17 09:39:23;;;;;;;;;;;;;;;5.27;100.00;95799.69;5468650;26;19973;-72
2024/04/17 09:41:49;;;;;;;;;;;;;;;5.32;100.00;95801.72;5468447;26;19975;-74
2024/04/17 09:44:19;;;;;;;;;;;;;;;5.40;100.00;95801.50;5468345;26;19980;-73
2024/04/17 09:46:45;;;;;;;;;;;;;;;5.47;100.00;95807.50;5468409;26;19962;-70
2024/04/17 09:49:24;;;;;;;;;;;;;;;5.51;100.00;95808.69;5467437;26;20061;-77
2024/04/17 09:51:57;;;;;;;;;;;;;;;5.51;100.00;95810.50;5468269;26;19948;-77
2024/04/17 09:54:23;;;;;;;;;;;;;;;5.54;100.00;95802.28;5468354;26;19955;-78
2024/04/17 09:56:49;;;;;;;;;;;;;;;5.55;100.00;95799.50;5468142;26;19959;-76
2024/04/17 09:59:19;;;;;;;;;;;;;;;5.55;100.00;95815.09;5468171;26;19956;-77
2024/04/17 10:01:45;;;;;;;;;;;;;;;5.57;100.00;95807.09;5468161;26;19951;-76
2024/04/17 10:04:13;;;;;;;;;;;;;;;5.59;100.00;95805.09;5468122;26;19983;-71
2024/04/17 10:06:39;;;;;;;;;;;;;;;5.56;100.00;95792.47;5468113;26;19960;-67
2024/04/17 10:09:05;;;;;;;;;;;;;;;5.53;100.00;95798.09;5467983;26;19957;-73
2024/04/17 10:11:31;;;;;;;;;;;;;;;5.54;100.00;95794.47;5468028;26;19953;-72
2024/04/17 10:13:57;;;;;;;;;;;;;;;5.60;100.00;95806.69;5467814;26;19968;-73
2024/04/17 10:16:23;;;;;;;;;;;;;;;5.74;100.00;95794.47;5467854;26;19976;-73
2024/04/17 10:18:49;;;;;;;;;;;;;;;5.87;100.00;95804.84;5467806;26;19948;-75
2024/04/17 10:21:23;;;;;;;;;;;;;;;6.04;100.00;95797.41;5467665;26;19954;-73
2024/04/17 10:24:18;;;;;;;;;;;;;;;6.29;100.00;95806.13;5467671;26;19984;-76
2024/04/17 10:26:45;;;;;;;;;;;;;;;6.42;100.00;95799.28;5444806;26;19964;-67
2024/04/17 10:29:29;;;;;;;;;;;;;;;6.44;100.00;95792.06;5466605;26;19975;-67
2024/04/17 10:31:55;;;;;;;;;;;;;;;6.44;100.00;95802.47;5467709;26;19960;-67
2024/04/17 10:34:28;;;;;;;;;;;;;;;6.44;100.00;95794.66;5467649;26;19959;-68
2024/04/17 10:36:54;;;;;;;;;;;;;;;6.43;100.00;95787.88;5467553;26;19963;-67
2024/04/17 10:39:20;;;;;;;;;;;;;;;6.44;100.00;95790.25;5467547;26;20181;-67
2024/04/17 10:41:46;;;;;;;;;;;;;;;6.65;100.00;95801.38;5467368;26;19953;-72
2024/04/17 10:44:12;;;;;;;;;;;;;;;6.99;100.00;95788.94;5467363;26;19965;-71
2024/04/17 10:46:38;;;;;;;;;;;;;;;7.28;100.00;95790.91;5467435;26;20166;-71
2024/04/17 10:49:14;;;;;;;;;;;;;;;7.52;100.00;95773.69;5465008;26;19960;-70
2024/04/17 10:51:41;;;;;;;;;;;;;;;7.71;100.00;95774.50;5467468;26;20093;-70
2024/04/17 10:54:07;;;;;;;;;;;;;;;7.75;100.00;95759.22;5436598;26;19979;-70
2024/04/17 10:56:33;;;;;;;;;;;;;;;7.67;100.00;95757.69;5467220;26;19959;-71
2024/04/17 10:59:00;;;;;;;;;;;;;;;7.54;100.00;95736.94;5467241;26;19955;-71
2024/04/17 11:01:26;;;;;;;;;;;;;;;7.46;100.00;95747.66;5467356;26;19973;-71
2024/04/17 11:03:52;;;;;;;;;;;;;;;7.38;100.00;95737.50;5467197;26;19982;-68
2024/04/17 11:06:18;;;;;;;;;;;;;;;7.30;100.00;95765.41;5467204;26;20167;-67
2024/04/17 11:08:45;;;;;;;;;;;;;;;7.29;100.00;95763.06;5467086;26;19992;-67
2024/04/17 11:11:11;;;;;;;;;;;;;;;7.15;100.00;95764.94;5467012;26;19976;-67
2024/04/17 11:13:41;;;;;;;;;;;;;;;7.05;100.00;95768.03;5466937;26;19963;-67
2024/04/17 11:16:07;;;;;;;;;;;;;;;6.97;100.00;95773.53;5466937;26;19951;-68
2024/04/17 11:18:34;;;;;;;;;;;;;;;7.00;100.00;95788.72;5466902;26;20104;-80
2024/04/17 11:21:00;;;;;;;;;;;;;;;7.10;100.00;95778.63;5466869;26;19951;-75
2024/04/17 11:23:26;;;;;;;;;;;;;;;7.16;100.00;95784.81;5466912;26;19973;-76
2024/04/17 11:25:52;;;;;;;;;;;;;;;7.21;100.00;95769.31;5466702;26;20027;-76
2024/04/17 11:28:18;;;;;;;;;;;;;;;7.30;100.00;95794.13;5466685;26;20694;-76
2024/04/17 11:30:47;;;;;;;;;;;;;;;7.48;100.00;95777.72;5466777;26;19964;-76
2024/04/17 11:33:13;;;;;;;;;;;;;;;7.79;100.00;95757.75;5466567;26;19947;-76
2024/04/17 11:35:39;;;;;;;;;;;;;;;8.14;100.00;95780.66;5466600;26;19954;-75
2024/04/17 11:38:07;;;;;;;;;;;;;;;8.43;100.00;95767.91;5466664;26;19990;-70
2024/04/17 11:40:33;;;;;;;;;;;;;;;8.59;100.00;95742.94;5466459;26;19980;-75
2024/04/17 11:42:59;;;;;;;;;;;;;;;8.60;100.00;95707.97;5466491;26;20151;-76
2024/04/17 11:45:25;;;;;;;;;;;;;;;8.52;100.00;95749.09;5466703;26;20117;-75
2024/04/17 11:47:50;;;;;;;;;;;;;;;8.46;100.00;95736.09;5466488;26;19954;-75
2024/04/17 11:50:16;;;;;;;;;;;;;;;8.33;100.00;95752.72;5466401;26;19958;-75
2024/04/17 11:52:42;;;;;;;;;;;;;;;8.22;100.00;95732.56;5466381;26;19995;-75
2024/04/17 11:55:08;;;;;;;;;;;;;;;8.16;100.00;95747.28;5466288;26;19956;-70
2024/04/17 11:57:34;;;;;;;;;;;;;;;8.21;100.00;95736.19;5466347;26;19984;-70
2024/04/17 12:00:00;;;;;;;;;;;;;;;8.23;100.00;95710.66;5467059;26;19970;-69
2024/04/17 12:02:26;;;;;;;;;;;;;;;8.22;100.00;95730.75;5469885;26;19955;-68
2024/04/17 12:04:52;;;;;;;;;;;;;;;8.22;100.00;95709.06;5469182;26;19946;-69
2024/04/17 12:07:18;;;;;;;;;;;;;;;8.20;100.00;95732.78;5469204;26;19945;-69
2024/04/17 12:09:48;;;;;;;;;;;;;;;8.18;100.00;95755.72;5438828;26;20020;-68
2024/04/17 12:12:15;;;;;;;;;;;;;;;8.18;100.00;95767.97;5469741;26;19953;-68
2024/04/17 12:14:41;;;;;;;;;;;;;;;8.07;100.00;95770.31;5471838;26;19948;-71
2024/04/17 12:17:11;;;;;;;;;;;;;;;7.84;100.00;95781.41;5470828;26;19986;-71
2024/04/17 12:19:37;;;;;;;;;;;;;;;7.49;100.00;95788.94;5469732;26;19978;-71
2024/04/17 12:22:03;;;;;;;;;;;;;;;7.11;100.00;95782.03;5469617;26;19957;-71
2024/04/17 12:27:13;;;;;;;;;;;;;;;6.37;100.00;95817.34;5469472;26;19946;-71
2024/04/17 12:29:38;;;;;;;;;;;;;;;6.15;100.00;95819.41;5469596;26;19950;-70
2024/04/17 12:32:04;;;;;;;;;;;;;;;5.92;100.00;95825.84;5469455;26;19979;-77
2024/04/17 12:34:31;;;;;;;;;;;;;;;5.70;100.00;95828.69;5469738;26;19973;-72
2024/04/17 12:36:57;;;;;;;;;;;;;;;5.51;100.00;95831.31;5469362;26;20078;-67
2024/04/17 12:39:23;;;;;;;;;;;;;;;5.36;100.00;95841.91;5469381;26;19993;-67
2024/04/17 12:41:49;;;;;;;;;;;;;;;5.24;100.00;95844.28;5469234;26;19990;-66
2024/04/17 12:44:14;;;;;;;;;;;;;;;5.13;100.00;95839.69;5469236;26;19960;-66
2024/04/17 12:46:40;;;;;;;;;;;;;;;5.12;100.00;95851.88;5469462;26;20024;-66